Aérodrome :
LOGIN :

S'inscrire | Disclaimer

   EN    FR    IT 

 










Légende :    VFR   VFR Marginal   IFR   IFR Intensif   IFR Très Intensif
Visi : 
Plafond : 
>= 8 km
>= 3000ft
5 à 8 km
1000 à 3000 ft
1500m à 5 km
500 à 1000 ft
800 à 1500m
200 à 500 ft
< 800m
< 200 ft
Symboles :   Orages  Brouillard  Fortes neiges  Fortes précipitations  Vent > 20 kt
SIGMETs :   Divers  Orages  Givrage  Turbulence  Onde Orograph.  Cendres Volcan.






- Altitude de l'aérodrome : 80 ft
- Code IATA : LPL


EGGP - Liverpool John Lennon

DERNIER METAR :
  • 070050Z 27016KT 9999 FEW031 BKN036 10/08 Q1008

METARs EXPIRÉS :
  • 070020Z 28018KT 9999 BKN015 SCT031 BKN036 10/08 Q1007
  • 062350Z 27014KT 9999 BKN015 BKN031 10/08 Q1007
  • 062320Z 27013KT 9999 FEW014 BKN034 OVC037 09/08 Q1007
  • 062250Z 27017KT 9999 FEW014 SCT019 BKN025 09/08 Q1006

TAF TAF EGGP
Valide du 07 à 00h jusqu'au 08 à 00h UTC


062257Z 0700/0724 28015KT 9999 BKN020
BECMG 0708/0711 22007KT
BECMG 0718/0721 20017G27KT
PROB30
TEMPO 0718/0724 BKN014
TEMPO 0721/0724 21025G40KT 8000 -RA
PROB30
TEMPO 0722/0724 6000 RA
ATIS : +44 151 907 2000 (option 5 or ext 5150)
Météo : +44 871 750 5150



MET'MAP, la Météo Aéronautique d'un coup d'oeil ! - Copyright ORBIFLY Décembre 2007 - Disclaimer

ORBIFLY MET'MAP TEAM :

Programmation & Développement : Alexandra Zaïnal
Sur une idée originale de : Baudouin d'Aumeries
Assistance à la programmation : Marc-Olivier Méhu
Soutien technique & logistique : Manuel Goepfert

Contact : metmap@orbifly.com




SOURCES & CREDITS :

   NOAA